tititudorancea.com
Station Historical Data
Daily Summary for September 16, 2018 Units:  Metric    English   Both
« Previous Day
Next Day »
Daily Weekly Monthly Yearly Custom
  High: Low: Average:
Temperature: -17.8 °C 1.6 °C 7.3 °C
Dew Point: -17.8 °C -0.6 °C 2.3 °C
Humidity: Humidity % 49 % 72 %
Wind Speed: 0 km/h 0 km/h 10.1 km/h
Wind Gust: 0 km/h - -
Wind:- - WNW
Pressure: 0 hPa 1017.5 hPa -
Precipitation: 0 mm    
Historical Graphs
 
 
Ararat weather Find more about Weather in Ararat, AU


 



 


Tabular Data for September 16, 2018
Time Temperature Dew Point Pressure Wind Wind Speed Wind Gust Humidity Rainfall Rate (Hourly)
-17.8 °C -17.8 °C 0 hPa Calm     Humidity % 0 mm
00:04 4.4 °C 0.7 °C 1017.5 hPa WSW 14.8 km/h 10.1 km/h 77 % 0 mm
00:09 4.4 °C 0.8 °C 1017.5 hPa WSW 9.3 km/h 4 km/h 77 % 0 mm
00:14 4.5 °C 0.8 °C 1017.5 hPa WSW 13 km/h 4 km/h 77 % 0 mm
00:19 4.5 °C 0.6 °C 1017.5 hPa WSW 11.3 km/h 8.9 km/h 76 % 0 mm
00:24 4.4 °C 0.8 °C 1017.5 hPa North 7.4 km/h 5.1 km/h 77 % 0 mm
00:29 4.4 °C 0.6 °C 1017.8 hPa WSW 12.9 km/h 5 km/h 76 % 0 mm
00:34 4.4 °C 0.6 °C 1017.8 hPa WSW 7.4 km/h 6.8 km/h 76 % 0 mm
00:39 4.3 °C 0.7 °C 1017.8 hPa WSW 11.1 km/h 7.1 km/h 77 % 0 mm
00:44 4.2 °C 0.6 °C 1017.8 hPa WSW 5.6 km/h 4.8 km/h 77 % 0 mm
00:49 4.2 °C 0.7 °C 1018.2 hPa WSW 13 km/h 9.3 km/h 78 % 0 mm
00:54 4.3 °C 0.8 °C 1018.2 hPa West 18.5 km/h 10.1 km/h 78 % 0 mm
00:59 4.4 °C 0.8 °C 1018.2 hPa WSW 16.7 km/h 8.7 km/h 77 % 0 mm
01:04 4.4 °C 0.7 °C 1018.2 hPa WSW 13 km/h 10.5 km/h 77 % 0 mm
01:09 4.4 °C 0.7 °C 1018.2 hPa West 11.3 km/h 10.6 km/h 77 % 0 mm
01:14 4.4 °C 0.8 °C 1018.2 hPa WSW 14.8 km/h 8.5 km/h 77 % 0 mm
01:19 4.5 °C 0.8 °C 1018.2 hPa WSW 13 km/h 9.5 km/h 77 % 0 mm
01:24 4.5 °C 0.8 °C 1018.2 hPa North 14.8 km/h 8.5 km/h 77 % 0 mm
01:29 4.4 °C 0.7 °C 1018.2 hPa WSW 14.8 km/h 6.8 km/h 77 % 0 mm
01:34 4.3 °C 0.8 °C 1018.2 hPa WSW 9.3 km/h 6 km/h 78 % 0 mm
01:39 4.2 °C 0.7 °C 1018.2 hPa WSW 7.4 km/h 4.5 km/h 78 % 0 mm
01:44 4.1 °C 0.6 °C 1018.2 hPa WSW 9.3 km/h 8 km/h 78 % 0 mm
01:49 3.9 °C 0.6 °C 1018.2 hPa WSW 9.7 km/h 8.7 km/h 79 % 0 mm
01:54 3.8 °C 0.5 °C 1018.2 hPa North 8 km/h 9.2 km/h 79 % 0 mm
01:59 3.8 °C 0.7 °C 1018.2 hPa West 16.7 km/h 10.5 km/h 80 % 0 mm
02:04 3.8 °C 0.7 °C 1018.2 hPa West 9.3 km/h 7.2 km/h 80 % 0 mm
02:09 3.8 °C 0.7 °C 1018.5 hPa North 11.3 km/h 8.4 km/h 80 % 0 mm
02:14 3.7 °C 0.6 °C 1018.5 hPa West 13 km/h 9.5 km/h 80 % 0 mm
02:19 3.7 °C 0.8 °C 1018.5 hPa West 13 km/h 9.2 km/h 81 % 0 mm
02:24 3.8 °C 0.9 °C 1018.5 hPa West 13 km/h 8.7 km/h 81 % 0 mm
02:29 3.9 °C 0.8 °C 1018.5 hPa North 14.8 km/h 7.1 km/h 80 % 0 mm
02:34 3.9 °C 0.8 °C 1018.5 hPa West 18.5 km/h 9.2 km/h 80 % 0 mm
02:39 3.9 °C 1 °C 1018.5 hPa West 14.8 km/h 8.4 km/h 81 % 0 mm
02:44 3.9 °C 1 °C 1018.5 hPa West 13 km/h 12.4 km/h 81 % 0 mm
02:49 4 °C 0.8 °C 1018.5 hPa West 16.7 km/h 9.3 km/h 80 % 0 mm
02:54 3.9 °C 0.8 °C 1018.5 hPa West 9.3 km/h 8.7 km/h 80 % 0 mm
02:59 3.9 °C 0.9 °C 1018.5 hPa West 13 km/h 9.3 km/h 81 % 0 mm
03:04 3.8 °C 0.9 °C 1018.5 hPa North 9.7 km/h 9 km/h 81 % 0 mm
03:09 3.8 °C 0.9 °C 1018.5 hPa West 16.7 km/h 10.9 km/h 81 % 0 mm
03:14 3.8 °C 0.9 °C 1018.5 hPa West 11.1 km/h 7.7 km/h 81 % 0 mm
03:19 3.8 °C 0.9 °C 1018.5 hPa West 9.7 km/h 8.4 km/h 81 % 0 mm
03:24 3.8 °C 0.8 °C 1018.8 hPa West 11.1 km/h 7.9 km/h 81 % 0 mm
03:29 3.7 °C 0.8 °C 1018.8 hPa West 7.4 km/h 8 km/h 81 % 0 mm
03:34 3.7 °C 0.8 °C 1018.8 hPa West 11.3 km/h 8.4 km/h 81 % 0 mm
03:39 3.7 °C 0.8 °C 1018.8 hPa West 8 km/h 7.4 km/h 81 % 0 mm
03:44 3.8 °C 0.8 °C 1018.8 hPa West 9.3 km/h 5.5 km/h 81 % 0 mm
03:49 3.8 °C 1.1 °C 1018.8 hPa West 11.3 km/h 8 km/h 82 % 0 mm
03:54 3.9 °C 1.1 °C 1018.8 hPa West 8 km/h 5.6 km/h 82 % 0 mm
03:59 3.8 °C 1.1 °C 1018.8 hPa West 9.3 km/h 6.9 km/h 82 % 0 mm
04:04 3.8 °C 1 °C 1018.8 hPa North 9.7 km/h 9.3 km/h 82 % 0 mm
04:09 3.8 °C 1.1 °C 1018.8 hPa West 11.1 km/h 7.1 km/h 82 % 0 mm
04:14 3.7 °C 0.9 °C 1018.8 hPa West 7.4 km/h 6.4 km/h 82 % 0 mm
04:19 3.6 °C 0.8 °C 1018.8 hPa West 5.6 km/h 5.3 km/h 82 % 0 mm
04:24 3.6 °C 0.9 °C 1019.2 hPa West 9.3 km/h 5.6 km/h 83 % 0 mm
04:29 3.5 °C 0.9 °C 1019.2 hPa West 5.6 km/h 4.5 km/h 83 % 0 mm
04:34 3.4 °C 0.8 °C 1019.2 hPa West 5.6 km/h 5.5 km/h 83 % 0 mm
04:39 3.4 °C 0.8 °C 1019.2 hPa West 7.4 km/h 5.6 km/h 83 % 0 mm
04:44 3.3 °C 0.7 °C 1019.5 hPa West 5.6 km/h 5.6 km/h 83 % 0 mm
04:49 3.4 °C 0.9 °C 1019.5 hPa North 7.4 km/h 5.5 km/h 84 % 0 mm
04:54 3.4 °C 0.9 °C 1019.5 hPa West 5.6 km/h 5.1 km/h 84 % 0 mm
04:59 3.4 °C 0.8 °C 1019.5 hPa West 6.4 km/h 5.6 km/h 83 % 0 mm
05:04 3.3 °C 0.7 °C 1019.5 hPa West 5.6 km/h 4.7 km/h 83 % 0 mm
05:09 3.2 °C 0.7 °C 1019.5 hPa West 5.6 km/h 2.9 km/h 84 % 0 mm
05:14 3.1 °C 0.6 °C 1019.5 hPa West 5.6 km/h 2.6 km/h 84 % 0 mm
05:19 2.9 °C 0.4 °C 1019.5 hPa West 5.6 km/h 5 km/h 84 % 0 mm
05:24 2.9 °C 0.6 °C 1019.5 hPa West 7.4 km/h 6.9 km/h 85 % 0 mm
05:29 2.9 °C 0.7 °C 1019.9 hPa West 6.4 km/h 5.1 km/h 85 % 0 mm
05:34 3 °C 0.7 °C 1019.9 hPa West 9.7 km/h 5.5 km/h 85 % 0 mm
05:39 3.1 °C 0.8 °C 1019.9 hPa North 5.6 km/h 4.5 km/h 85 % 0 mm
05:44 3.1 °C 0.8 °C 1019.9 hPa West 6.4 km/h 4 km/h 85 % 0 mm
05:49 3.1 °C 0.7 °C 1019.9 hPa North 5.6 km/h 4.5 km/h 84 % 0 mm
05:54 3.1 °C 0.7 °C 1020.2 hPa West 5.6 km/h 5.6 km/h 84 % 0 mm
05:59 3.1 °C 0.7 °C 1020.2 hPa North 5.6 km/h 2.7 km/h 84 % 0 mm
06:04 3.1 °C 0.6 °C 1020.2 hPa West 3.7 km/h 1.9 km/h 84 % 0 mm
06:09 2.9 °C 0.3 °C 1020.2 hPa West 5.6 km/h 2.9 km/h 83 % 0 mm
06:14 2.6 °C 0 °C 1020.2 hPa West 3.7 km/h 1.4 km/h 83 % 0 mm
06:19 2.3 °C -0.3 °C 1020.2 hPa Calm     83 % 0 mm
06:24 2 °C -0.6 °C 1020.2 hPa West 6.4 km/h 4.3 km/h 83 % 0 mm
06:29 1.8 °C -0.6 °C 1020.5 hPa West 3.7 km/h 1 km/h 84 % 0 mm
06:34 1.7 °C -0.6 °C 1020.5 hPa West 3.7 km/h 2.7 km/h 85 % 0 mm
06:39 1.6 °C -0.5 °C 1020.5 hPa West 5.6 km/h 4.7 km/h 86 % 0 mm
06:44 1.6 °C -0.6 °C 1020.5 hPa North 3.7 km/h 1.9 km/h 86 % 0 mm
06:49 1.6 °C -0.4 °C 1020.5 hPa West 5.6 km/h 3.7 km/h 87 % 0 mm
06:54 1.6 °C -0.3 °C 1020.5 hPa West 5.6 km/h 2.3 km/h 87 % 0 mm
06:59 1.7 °C -0.1 °C 1020.5 hPa West 5.6 km/h 3.9 km/h 88 % 0 mm
07:04 1.8 °C 0.1 °C 1020.5 hPa West 5.6 km/h 1.1 km/h 88 % 0 mm
07:09 2 °C 0.2 °C 1020.9 hPa North 5.6 km/h 3.7 km/h 88 % 0 mm
07:14 2.2 °C 0.4 °C 1020.9 hPa West 1.9 km/h 2.1 km/h 88 % 0 mm
07:19 2.4 °C 0.7 °C 1021.2 hPa West 3.7 km/h 3.5 km/h 88 % 0 mm
07:24 2.7 °C 0.9 °C 1021.2 hPa West 7.4 km/h 4.8 km/h 88 % 0 mm
07:29 2.9 °C 1.1 °C 1021.2 hPa North 5.6 km/h 3.1 km/h 88 % 0 mm
07:34 3.1 °C 1.2 °C 1021.2 hPa West 5.6 km/h 3.7 km/h 87 % 0 mm
07:39 3.4 °C 1.4 °C 1021.6 hPa West 3.7 km/h   87 % 0 mm
07:44 3.7 °C 1.7 °C 1021.6 hPa West 5.6 km/h 3.4 km/h 87 % 0 mm
07:49 3.9 °C 1.8 °C 1021.6 hPa West 5.6 km/h 4 km/h 86 % 0 mm
07:54 4.2 °C 1.9 °C 1021.6 hPa West 3.2 km/h 0.3 km/h 85 % 0 mm
07:59 4.5 °C 2.2 °C 1021.9 hPa West 6.4 km/h 3.7 km/h 85 % 0 mm
08:04 4.9 °C 2.4 °C 1021.9 hPa North 5.6 km/h 1.4 km/h 84 % 0 mm
08:09 5.4 °C 2.7 °C 1021.9 hPa West 5.6 km/h 0.3 km/h 83 % 0 mm
08:14 5.8 °C 2.8 °C 1021.9 hPa West 12.9 km/h 6.3 km/h 81 % 0 mm
08:19 6.2 °C 2.8 °C 1021.9 hPa West 9.3 km/h 8.9 km/h 79 % 0 mm
08:24 6.3 °C 2.6 °C 1021.9 hPa West 7.4 km/h 6.6 km/h 77 % 0 mm
08:29 6.4 °C 2.5 °C 1021.9 hPa West 16.7 km/h 8.4 km/h 76 % 0 mm
08:34 6.7 °C 2.9 °C 1021.9 hPa West 7.4 km/h 6.8 km/h 77 % 0 mm
08:39 6.8 °C 2.7 °C 1022.2 hPa West 11.1 km/h 7.7 km/h 75 % 0 mm
08:44 7 °C 2.9 °C 1022.2 hPa West 9.3 km/h 9.3 km/h 75 % 0 mm
08:49 7.2 °C 3.1 °C 1022.2 hPa West 9.3 km/h 6.8 km/h 75 % 0 mm
08:54 7.3 °C 2.9 °C 1022.2 hPa WSW 16.1 km/h 15 km/h 74 % 0 mm
08:59 7.3 °C 2.8 °C 1022.2 hPa WSW 16.7 km/h 12.4 km/h 73 % 0 mm
09:04 7.3 °C 3 °C 1022.2 hPa WSW 9.7 km/h 9.5 km/h 74 % 0 mm
09:09 7.3 °C 2.8 °C 1022.2 hPa North 18.5 km/h 13.4 km/h 73 % 0 mm
09:14 7.3 °C 2.9 °C 1022.2 hPa WSW 16.7 km/h 9.8 km/h 74 % 0 mm
09:19 7.4 °C 3.1 °C 1022.6 hPa West 16.7 km/h 12.4 km/h 74 % 0 mm
09:24 7.7 °C 3.4 °C 1022.6 hPa West 14.8 km/h 10 km/h 74 % 0 mm
09:29 7.9 °C 3.6 °C 1022.6 hPa West 9.3 km/h 4.5 km/h 74 % 0 mm
09:34 8.1 °C 3.6 °C 1022.6 hPa WSW 12.9 km/h 10.6 km/h 73 % 0 mm
09:39 8.2 °C 3.1 °C 1022.6 hPa WSW 22.2 km/h 13.5 km/h 70 % 0 mm
09:44 8.2 °C 3.2 °C 1022.9 hPa WSW 18.5 km/h 12.4 km/h 71 % 0 mm
09:49 8.2 °C 3.2 °C 1022.6 hPa WSW 14.8 km/h 8.2 km/h 71 % 0 mm
09:54 8.4 °C 3.4 °C 1022.9 hPa SW 16.7 km/h 10 km/h 71 % 0 mm
09:59 8.9 °C 3.9 °C 1022.9 hPa West 16.7 km/h 12.9 km/h 71 % 0 mm
10:04 9 °C 3.8 °C 1022.9 hPa SW 17.7 km/h 11.4 km/h 70 % 0 mm
10:09 8.8 °C 3.6 °C 1022.9 hPa SW 13 km/h 7.2 km/h 70 % 0 mm
10:14 8.4 °C 3.2 °C 1022.9 hPa WSW 22.2 km/h 15.3 km/h 70 % 0 mm
10:19 8.6 °C 3.7 °C 1022.6 hPa North 18.5 km/h 8.9 km/h 71 % 0 mm
10:24 8.8 °C 3.4 °C 1022.6 hPa North 18.5 km/h 16.9 km/h 69 % 0 mm
10:29 9 °C 3.6 °C 1022.6 hPa WSW 14.8 km/h 9.7 km/h 69 % 0 mm
10:34 9.2 °C 3.8 °C 1022.6 hPa North 14.8 km/h 10.9 km/h 69 % 0 mm
10:39 9.3 °C 3.5 °C 1022.6 hPa WSW 17.7 km/h 13.5 km/h 67 % 0 mm
10:44 9.7 °C 4.1 °C 1022.6 hPa North 17.7 km/h 12.7 km/h 68 % 0 mm
10:49 9.5 °C 2.8 °C 1022.6 hPa SW 14.5 km/h 7.6 km/h 63 % 0 mm
10:54 9.5 °C 3.2 °C 1022.6 hPa SW 18.5 km/h 13.2 km/h 65 % 0 mm
10:59 9.4 °C 3.1 °C 1022.6 hPa SW 11.1 km/h 6.3 km/h 65 % 0 mm
11:04 9.7 °C 3.2 °C 1022.6 hPa WSW 20.9 km/h 13 km/h 64 % 0 mm
11:09 9.4 °C 2.7 °C 1022.6 hPa SW 18.5 km/h 10.8 km/h 63 % 0 mm
11:14 9.2 °C 2.1 °C 1022.6 hPa North 22.2 km/h 15 km/h 61 % 0 mm
11:19 9.5 °C 2.8 °C 1022.6 hPa SSW 24.1 km/h 14.3 km/h 63 % 0 mm
11:24 9.6 °C 2.8 °C 1022.6 hPa SW 22.2 km/h 14.2 km/h 63 % 0 mm
11:29 9.4 °C 3.3 °C 1022.6 hPa West 18.5 km/h 14.5 km/h 66 % 0 mm
11:34 9.4 °C 3.2 °C 1022.6 hPa West 18.5 km/h 9.3 km/h 65 % 0 mm
11:39 9.6 °C 2.9 °C 1022.6 hPa West 19.3 km/h 20.9 km/h 63 % 0 mm
11:44 9.7 °C 3.2 °C 1022.6 hPa WSW 22.2 km/h 14.2 km/h 64 % 0 mm
11:49 10.2 °C 3.7 °C 1022.6 hPa SW 16.7 km/h 12.6 km/h 64 % 0 mm
11:54 10.5 °C 3.5 °C 1022.6 hPa West 18.5 km/h 14.3 km/h 62 % 0 mm
11:59 10.6 °C 3.6 °C 1022.6 hPa West 16.7 km/h 11.3 km/h 62 % 0 mm
12:04 10.1 °C 2.7 °C 1022.6 hPa SW 20.4 km/h 17.4 km/h 60 % 0 mm
12:09 9.6 °C 2.8 °C 1022.6 hPa SW 16.7 km/h 13 km/h 63 % 0 mm
12:14 9.7 °C 3.4 °C 1022.6 hPa West 17.7 km/h 12.2 km/h 65 % 0 mm
12:19 9.8 °C 3.3 °C 1022.6 hPa WSW 11.3 km/h 10 km/h 64 % 0 mm
12:24 10.1 °C 2.9 °C 1022.2 hPa SSW 17.7 km/h 11.1 km/h 61 % 0 mm
12:29 9.9 °C 2.6 °C 1022.6 hPa North 18.5 km/h 10.9 km/h 60 % 0 mm
12:34 9.8 °C 2.8 °C 1022.6 hPa North 14.8 km/h 7.2 km/h 62 % 0 mm
12:39 9.7 °C 2.8 °C 1022.2 hPa SW 18.5 km/h 10.3 km/h 62 % 0 mm
12:44 9.7 °C 2.7 °C 1022.2 hPa SW 5.6 km/h 4.8 km/h 62 % 0 mm
12:49 9.7 °C 2.7 °C 1022.2 hPa SW 9.7 km/h 7.7 km/h 62 % 0 mm
12:54 9.6 °C 2.8 °C 1022.2 hPa SW 9.3 km/h 6.1 km/h 63 % 0 mm
12:59 9.7 °C 3.4 °C 1022.2 hPa SW 11.3 km/h 6.3 km/h 65 % 0 mm
13:04 10.3 °C 3.1 °C 1021.9 hPa WSW 16.7 km/h 12.6 km/h 61 % 0 mm
13:09 10.8 °C 3.1 °C 1021.9 hPa North 18.5 km/h 10.6 km/h 59 % 0 mm
13:14 11.1 °C 3.6 °C 1021.9 hPa West 17.7 km/h 10.1 km/h 60 % 0 mm
13:19 10.9 °C 3 °C 1021.9 hPa WSW 18.5 km/h 10.9 km/h 58 % 0 mm
13:24 11.1 °C 2.6 °C 1021.9 hPa WSW 11.1 km/h 8.5 km/h 56 % 0 mm
13:29 11.4 °C 2.7 °C 1021.6 hPa North 9.7 km/h 6.1 km/h 55 % 0 mm
13:34 11.6 °C 2.9 °C 1021.6 hPa SW 14.5 km/h 7.2 km/h 55 % 0 mm
13:39 11.6 °C 1.8 °C 1021.6 hPa SW 11.1 km/h 8 km/h 51 % 0 mm
13:44 11.6 °C 1.8 °C 1021.6 hPa West 9.3 km/h 6.8 km/h 51 % 0 mm
13:49 11.6 °C 1.8 °C 1021.6 hPa SW 14.5 km/h 10.3 km/h 51 % 0 mm
13:54 11.8 °C 1.7 °C 1021.6 hPa WSW 9.3 km/h 10.1 km/h 50 % 0 mm
13:59 11.8 °C 2.2 °C 1021.6 hPa WSW 9.3 km/h 6.4 km/h 52 % 0 mm
14:04 12.4 °C 2.8 °C 1021.6 hPa SW 14.8 km/h 5.1 km/h 52 % 0 mm
14:09 12 °C 2.2 °C 1021.6 hPa SSW 18.5 km/h 13.2 km/h 51 % 0 mm
14:14 11.6 °C 2.1 °C 1021.6 hPa SSW 14.8 km/h 5.6 km/h 52 % 0 mm
14:19 11.7 °C 2.2 °C 1021.6 hPa SSW 7.4 km/h 5.6 km/h 52 % 0 mm
14:24 12 °C 2.4 °C 1021.2 hPa North 18.5 km/h 14 km/h 52 % 0 mm
14:29 11.7 °C 2.4 °C 1021.2 hPa West 16.7 km/h 10.3 km/h 53 % 0 mm
14:34 11.4 °C 2.4 °C 1021.2 hPa WNW 16.7 km/h 9 km/h 54 % 0 mm
14:39 11.4 °C 2.7 °C 1021.2 hPa North 9.7 km/h 8 km/h 55 % 0 mm
14:44 11.5 °C 2.2 °C 1021.2 hPa WNW 7.4 km/h 2.4 km/h 53 % 0 mm
14:49 11.9 °C 2.6 °C 1021.2 hPa WNW 9.7 km/h 9.8 km/h 53 % 0 mm
14:54 11.7 °C 2.9 °C 1021.2 hPa West 14.8 km/h 10.3 km/h 55 % 0 mm
14:59 12 °C 3.2 °C 1021.2 hPa West 14.8 km/h 10.5 km/h 55 % 0 mm
15:04 11.8 °C 2.8 °C 1021.2 hPa West 11.3 km/h 9.3 km/h 54 % 0 mm
15:09 12.1 °C 3.3 °C 1021.2 hPa North 11.1 km/h 8.5 km/h 55 % 0 mm
15:14 12.2 °C 2.8 °C 1021.2 hPa WNW 13 km/h 9 km/h 53 % 0 mm
15:19 12.4 °C 3.1 °C 1021.2 hPa WNW 13 km/h 8.2 km/h 53 % 0 mm
15:24 12.6 °C 2.7 °C 1021.2 hPa NW 14.8 km/h 12.2 km/h 51 % 0 mm
15:29 12.4 °C 3.3 °C 1021.2 hPa NNW 7.4 km/h 4.7 km/h 54 % 0 mm
15:34 12.9 °C 2.4 °C 1021.2 hPa NW 16.7 km/h 10 km/h 49 % 0 mm
15:39 13 °C 2.5 °C 1021.2 hPa NW 9.3 km/h 6.8 km/h 49 % 0 mm
15:44 12.6 °C 2.2 °C 1021.2 hPa WNW 11.1 km/h 6.1 km/h 49 % 0 mm
15:49 11.9 °C 2.4 °C 1021.2 hPa WNW 7.4 km/h 3.7 km/h 52 % 0 mm
15:54 12.2 °C 2.9 °C 1021.2 hPa North 12.9 km/h 9.2 km/h 53 % 0 mm
15:59 12.4 °C 2.6 °C 1021.2 hPa NW 11.1 km/h 6.8 km/h 51 % 0 mm
16:04 12.7 °C 2.8 °C 1021.2 hPa NW 13 km/h 10.3 km/h 51 % 0 mm
16:09 12.7 °C 3.1 °C 1021.2 hPa NW 7.4 km/h 4.2 km/h 52 % 0 mm
16:14 12.7 °C 2.8 °C 1021.2 hPa NW 9.3 km/h 5.5 km/h 51 % 0 mm
16:19 12.6 °C 2.2 °C 1021.2 hPa NW 11.1 km/h 3.4 km/h 49 % 0 mm
16:24 12.3 °C 2.2 °C 1021.2 hPa WNW 11.1 km/h 7.2 km/h 50 % 0 mm
16:29 11.9 °C 2.1 °C 1021.2 hPa WNW 5.6 km/h 2.9 km/h 51 % 0 mm
16:34 11.7 °C 2.7 °C 1021.2 hPa WNW 16.7 km/h 8.7 km/h 54 % 0 mm
16:39 11.5 °C 2.5 °C 1021.2 hPa WNW 16.7 km/h 13.8 km/h 54 % 0 mm
16:44 11.4 °C 2.7 °C 1021.2 hPa WNW 14.8 km/h 12.6 km/h 55 % 0 mm
16:49 11.4 °C 2.9 °C 1021.2 hPa WNW 16.7 km/h 9.7 km/h 56 % 0 mm
16:54 11.4 °C 2.9 °C 1021.2 hPa WNW 16.7 km/h 12.6 km/h 56 % 0 mm
16:59 11.4 °C 2.7 °C 1021.2 hPa North 13 km/h 10.1 km/h 55 % 0 mm
17:04 11.4 °C 2.9 °C 1021.2 hPa WNW 13 km/h 10.8 km/h 56 % 0 mm
17:09 11.6 °C 3.4 °C 1021.2 hPa WNW 11.1 km/h 8.7 km/h 57 % 0 mm
17:14 11.9 °C 3.1 °C 1021.2 hPa NW 11.3 km/h 12.7 km/h 55 % 0 mm
17:19 11.9 °C 2.9 °C 1021.2 hPa NW 14.8 km/h 10.3 km/h 54 % 0 mm
17:24 11.8 °C 3.1 °C 1021.2 hPa WNW 11.1 km/h 8.5 km/h 55 % 0 mm
17:29 11.8 °C 3.1 °C 1021.2 hPa NW 9.3 km/h 5.3 km/h 55 % 0 mm
17:34 11.7 °C 2.9 °C 1021.2 hPa NW 11.1 km/h 8.4 km/h 55 % 0 mm
17:39 11.3 °C 3.1 °C 1021.2 hPa WNW 14.8 km/h 10.5 km/h 57 % 0 mm
17:44 11.1 °C 3.2 °C 1021.2 hPa WNW 12.9 km/h 7.6 km/h 58 % 0 mm
17:49 11.1 °C 3.1 °C 1021.2 hPa North 9.7 km/h 7.9 km/h 58 % 0 mm
17:54 10.9 °C 3.2 °C 1021.2 hPa NW 14.5 km/h 9.8 km/h 59 % 0 mm
17:59 10.7 °C 3.7 °C 1021.2 hPa WNW 22.2 km/h 12.7 km/h 62 % 0 mm
18:04 10.3 °C 3.6 °C 1021.2 hPa WNW 16.7 km/h 13.2 km/h 63 % 0 mm
18:09 10.2 °C 3.9 °C 1021.6 hPa WNW 14.8 km/h 10.8 km/h 65 % 0 mm
18:14 10 °C 3.7 °C 1021.6 hPa WNW 11.1 km/h 9.7 km/h 65 % 0 mm
18:19 9.9 °C 3.9 °C 1021.6 hPa WNW 9.3 km/h 4.7 km/h 66 % 0 mm
18:24 9.8 °C 3.8 °C 1021.6 hPa North 11.1 km/h 6.6 km/h 66 % 0 mm
18:29 9.8 °C 3.7 °C 1021.6 hPa WNW 9.3 km/h 7.7 km/h 66 % 0 mm
18:34 9.7 °C 3.7 °C 1021.9 hPa North 9.3 km/h 6.9 km/h 66 % 0 mm
18:39 9.7 °C 3.7 °C 1021.6 hPa WNW 9.3 km/h 6.4 km/h 66 % 0 mm
18:44 9.7 °C 3.9 °C 1021.6 hPa WNW 7.4 km/h 6.6 km/h 67 % 0 mm
18:49 9.7 °C 3.9 °C 1021.9 hPa North 9.3 km/h 7.7 km/h 67 % 0 mm
18:54 9.8 °C 4 °C 1021.9 hPa WNW 13 km/h 8.7 km/h 67 % 0 mm
18:59 9.8 °C 4 °C 1021.9 hPa WNW 11.1 km/h 8.7 km/h 67 % 0 mm
19:04 9.9 °C 4.1 °C 1021.9 hPa WNW 11.1 km/h 7.7 km/h 67 % 0 mm
19:09 9.9 °C 4.1 °C 1021.9 hPa WNW 11.1 km/h 5 km/h 67 % 0 mm
19:14 9.8 °C 4 °C 1021.9 hPa WNW 9.3 km/h 7.6 km/h 67 % 0 mm
19:19 9.8 °C 4 °C 1021.9 hPa WNW 9.7 km/h 5.8 km/h 67 % 0 mm
19:24 9.9 °C 4.1 °C 1021.9 hPa WNW 6.4 km/h 5.6 km/h 67 % 0 mm
19:29 9.9 °C 4.1 °C 1022.2 hPa WNW 7.4 km/h 5.6 km/h 67 % 0 mm
19:34 9.8 °C 4.2 °C 1022.2 hPa WNW 5.6 km/h 4.8 km/h 68 % 0 mm
19:39 9.7 °C 4.3 °C 1022.2 hPa WNW 7.4 km/h 5.1 km/h 69 % 0 mm
19:44 9.7 °C 4.4 °C 1022.2 hPa WNW 7.4 km/h 5.6 km/h 70 % 0 mm
19:49 9.7 °C 4.4 °C 1022.2 hPa WNW 11.1 km/h 5.1 km/h 70 % 0 mm
19:54 9.6 °C 4.3 °C 1022.2 hPa WNW 8 km/h 7.4 km/h 70 % 0 mm
19:59 9.4 °C 4.4 °C 1022.2 hPa WNW 5.6 km/h 3.7 km/h 71 % 0 mm
20:04 9.3 °C 4.6 °C 1022.6 hPa WNW 5.6 km/h 3.4 km/h 72 % 0 mm
20:09 9.3 °C 4.7 °C 1022.2 hPa WNW 1.9 km/h   73 % 0 mm
20:14 9.2 °C 4.6 °C 1022.2 hPa Calm     73 % 0 mm
20:19 9.2 °C 4.6 °C 1022.2 hPa WNW 5.6 km/h 1.8 km/h 73 % 0 mm
20:24 9.1 °C 4.5 °C 1022.2 hPa WNW 3.2 km/h 1.4 km/h 73 % 0 mm
20:29 9.1 °C 4.5 °C 1022.2 hPa Calm     73 % 0 mm
20:34 9 °C 4.4 °C 1022.2 hPa Calm     73 % 0 mm
20:39 9 °C 4.6 °C 1022.6 hPa North 3.2 km/h 0.8 km/h 74 % 0 mm
20:44 8.9 °C 4.6 °C 1022.6 hPa Calm     74 % 0 mm
20:49 8.9 °C 4.5 °C 1022.6 hPa Calm     74 % 0 mm
20:54 8.7 °C 4.3 °C 1022.6 hPa Calm     74 % 0 mm
20:59 8.6 °C 4.2 °C 1022.6 hPa Calm     74 % 0 mm
21:04 8.4 °C 4.1 °C 1022.6 hPa Calm     74 % 0 mm
21:09 8.3 °C 3.9 °C 1022.6 hPa North 5.6 km/h 1.4 km/h 74 % 0 mm
21:14 8.2 °C 4.1 °C 1022.6 hPa WNW 3.7 km/h 1.1 km/h 75 % 0 mm
21:19 8.1 °C 3.9 °C 1022.6 hPa WNW 1.9 km/h 0.6 km/h 75 % 0 mm
21:24 7.9 °C 3.9 °C 1022.6 hPa Calm     76 % 0 mm
21:29 7.7 °C 3.8 °C 1022.6 hPa Calm     76 % 0 mm
21:34 7.6 °C 3.6 °C 1022.6 hPa Calm     76 % 0 mm
21:39 7.3 °C 3.7 °C 1022.6 hPa North 1.9 km/h 0.2 km/h 78 % 0 mm
21:44 7.2 °C 3.6 °C 1022.6 hPa WNW 3.7 km/h 2.3 km/h 78 % 0 mm
21:49 7 °C 3.6 °C 1022.6 hPa North 3.7 km/h 2.9 km/h 79 % 0 mm
21:54 6.8 °C 3.6 °C 1022.6 hPa WNW 1.6 km/h   80 % 0 mm
21:59 6.7 °C 3.7 °C 1022.2 hPa WNW 5.6 km/h 0.8 km/h 81 % 0 mm
22:04 6.6 °C 3.8 °C 1022.2 hPa Calm     82 % 0 mm
22:09 6.5 °C 3.7 °C 1022.2 hPa WNW 1.9 km/h 1.1 km/h 82 % 0 mm
22:14 6.3 °C 3.5 °C 1022.2 hPa Calm     82 % 0 mm
22:19 6.2 °C 3.5 °C 1022.2 hPa Calm     83 % 0 mm
22:24 6 °C 3.3 °C 1022.2 hPa WNW 1.9 km/h   83 % 0 mm
22:29 5.9 °C 3.2 °C 1022.2 hPa Calm     83 % 0 mm
22:34 5.7 °C 3.1 °C 1022.2 hPa North 3.7 km/h 1.8 km/h 83 % 0 mm
22:39 5.6 °C 3.1 °C 1022.2 hPa North 1.9 km/h   84 % 0 mm
22:44 5.3 °C 2.8 °C 1022.2 hPa Calm     84 % 0 mm
22:49 5.2 °C 2.7 °C 1022.2 hPa North 3.7 km/h 1.1 km/h 84 % 0 mm
22:54 5.1 °C 2.8 °C 1022.2 hPa WNW 3.7 km/h 2.6 km/h 85 % 0 mm
22:59 5.1 °C 2.9 °C 1022.2 hPa WNW 5.6 km/h 3.9 km/h 86 % 0 mm
23:04 5.2 °C 3 °C 1021.9 hPa WNW 3.7 km/h 1 km/h 86 % 0 mm
23:09 5.2 °C 3.2 °C 1021.9 hPa WNW 3.7 km/h 1.6 km/h 87 % 0 mm
23:14 5.3 °C 3.3 °C 1021.9 hPa WNW 5.6 km/h 3.5 km/h 87 % 0 mm
23:19 5.4 °C 3.3 °C 1021.9 hPa WNW 5.6 km/h 3.9 km/h 86 % 0 mm
23:24 5.7 °C 3.7 °C 1021.9 hPa North 7.4 km/h 5 km/h 87 % 0 mm
23:29 5.9 °C 3.8 °C 1021.9 hPa WNW 9.3 km/h 4.3 km/h 86 % 0 mm
23:34 6.2 °C 3.9 °C 1021.9 hPa WNW 7.4 km/h 6.4 km/h 85 % 0 mm
23:39 6.5 °C 4 °C 1021.9 hPa WNW 9.3 km/h 5.6 km/h 84 % 0 mm
23:44 6.7 °C 4 °C 1021.9 hPa WNW 6.4 km/h 4.8 km/h 83 % 0 mm
23:49 6.7 °C 4.1 °C 1021.9 hPa WNW 6.4 km/h 4.2 km/h 83 % 0 mm
23:54 6.7 °C 3.9 °C 1021.9 hPa North 5.6 km/h 4.8 km/h 82 % 0 mm
23:59 6.7 °C 3.8 °C 1021.6 hPa WNW 5.6 km/h 3.7 km/h 82 % 0 mm
Ararat Weather
Compliments of Weather Underground - 2.25 mb
Click here to send mail.


ABOUT

Live weather data from Ararat, Victoria, Australia, 3377
Data uploaded from Cumulus every 5 minutes to Weather Underground.
This site then downloads the raw data for formatting and display.
Metric and imperial data can be displayed. Graphs and historical data available.
Includes Sun and Moon times and rain image live from BOM.

Check out Ararat Weather on Facebook, Twitter and Google +

Help support ongoing costs by checking out the ads





Follow @AraratWeather